createdAt,value
2023-04-16T00:01:36.013Z,100792.94
2023-04-16T00:04:02.765Z,100788.50
2023-04-16T00:06:29.590Z,100789.31
2023-04-16T00:08:56.413Z,100793.56
2023-04-16T00:11:22.836Z,100791.84
2023-04-16T00:13:49.374Z,100797.56
2023-04-16T00:16:16.145Z,100804.47
2023-04-16T00:18:42.618Z,100808.06
2023-04-16T00:21:09.074Z,100804.47
2023-04-16T00:23:35.725Z,100806.25
2023-04-16T00:26:02.187Z,100805.41
2023-04-16T00:28:29.016Z,100801.56
2023-04-16T00:30:55.753Z,100805.41
2023-04-16T00:33:22.691Z,100802.16
2023-04-16T00:35:49.371Z,100805.81
2023-04-16T00:38:16.125Z,100803.72
2023-04-16T00:40:42.735Z,100803.13
2023-04-16T00:43:09.230Z,100802.41
2023-04-16T00:45:36.521Z,100802.75
2023-04-16T00:48:03.304Z,100808.56
2023-04-16T00:50:30.000Z,100810.03
2023-04-16T00:52:57.086Z,100803.34
2023-04-16T00:55:23.743Z,100806.72
2023-04-16T00:57:50.513Z,100797.09
2023-04-16T01:00:17.214Z,100807.81
2023-04-16T01:02:43.834Z,100805.16
2023-04-16T01:08:57.609Z,100811.47
2023-04-16T01:11:24.102Z,100814.84
2023-04-16T01:13:50.982Z,100815.94
2023-04-16T01:16:17.547Z,100817.53
2023-04-16T01:18:44.026Z,100821.38
2023-04-16T01:21:10.552Z,100824.03
2023-04-16T01:23:36.992Z,100823.34
2023-04-16T01:26:03.556Z,100822.97
2023-04-16T01:28:30.056Z,100826.72
2023-04-16T01:30:56.556Z,100831.53
2023-04-16T01:33:23.080Z,100831.59
2023-04-16T01:35:49.628Z,100827.44
2023-04-16T01:38:16.488Z,100834.44
2023-04-16T01:40:42.952Z,100831.19
2023-04-16T01:43:09.511Z,100830.84
2023-04-16T01:45:36.011Z,100832.41
2023-04-16T01:48:03.766Z,100833.16
2023-04-16T01:50:30.837Z,100825.75
2023-04-16T01:52:57.356Z,100834.69
2023-04-16T01:55:23.843Z,100837.50
2023-04-16T01:57:50.832Z,100833.75
2023-04-16T02:00:17.286Z,100838.00
2023-04-16T02:02:43.861Z,100835.22
2023-04-16T02:05:10.402Z,100834.63
2023-04-16T02:07:36.805Z,100845.97
2023-04-16T02:10:04.700Z,100834.44
2023-04-16T02:12:31.090Z,100841.97
2023-04-16T02:14:57.517Z,100839.78
2023-04-16T02:17:24.025Z,100842.47
2023-04-16T02:19:50.651Z,100847.06
2023-04-16T02:22:17.156Z,100849.81
2023-04-16T02:24:43.675Z,100849.97
2023-04-16T02:27:10.126Z,100843.47
2023-04-16T02:29:36.552Z,100853.38
2023-04-16T02:32:03.122Z,100859.44
2023-04-16T02:34:29.703Z,100857.50
2023-04-16T02:36:58.336Z,100862.00
2023-04-16T02:39:24.816Z,100866.72
2023-04-16T02:41:51.424Z,100855.69
2023-04-16T02:44:17.930Z,100868.16
2023-04-16T02:46:44.358Z,100864.75
2023-04-16T02:49:11.010Z,100861.25
2023-04-16T02:51:37.482Z,100868.78
2023-04-16T02:54:03.895Z,100871.66
2023-04-16T02:56:30.446Z,100861.38
2023-04-16T02:58:56.863Z,100871.19
2023-04-16T03:01:23.482Z,100865.72
2023-04-16T03:03:49.983Z,100868.19
2023-04-16T03:06:16.780Z,100872.63
2023-04-16T03:08:43.343Z,100874.31
2023-04-16T03:11:09.747Z,100879.63
2023-04-16T03:13:36.279Z,100884.13
2023-04-16T03:16:03.025Z,100880.03
2023-04-16T03:18:29.672Z,100882.44
2023-04-16T03:20:56.164Z,100888.00
2023-04-16T03:23:22.601Z,100887.25
2023-04-16T03:25:49.066Z,100886.91
2023-04-16T03:28:15.687Z,100887.03
2023-04-16T03:30:42.134Z,100885.34
2023-04-16T03:33:08.565Z,100893.19
2023-04-16T03:35:35.350Z,100886.31
2023-04-16T03:38:01.780Z,100895.16
2023-04-16T03:40:28.245Z,100886.66
2023-04-16T03:42:54.740Z,100894.78
2023-04-16T03:45:21.160Z,100887.06
2023-04-16T03:47:52.410Z,100894.28
2023-04-16T03:50:19.558Z,100895.66
2023-04-16T03:52:46.932Z,100903.13
2023-04-16T03:55:13.906Z,100896.25
2023-04-16T03:57:40.692Z,100900.13
2023-04-16T04:00:07.865Z,100900.84
2023-04-16T04:02:34.516Z,100908.34
2023-04-16T04:05:01.108Z,100912.84
2023-04-16T04:07:27.597Z,100916.56
2023-04-16T04:09:54.252Z,100916.56
2023-04-16T04:12:20.706Z,100920.06
2023-04-16T04:14:47.101Z,100921.41
2023-04-16T04:17:13.590Z,100928.28
2023-04-16T04:19:47.125Z,100936.78
2023-04-16T04:22:21.022Z,100930.13
2023-04-16T04:24:47.507Z,100927.69
2023-04-16T04:27:13.994Z,100939.03
2023-04-16T04:29:40.551Z,100932.28
2023-04-16T04:32:07.111Z,100939.06
2023-04-16T04:34:33.582Z,100943.03
2023-04-16T04:37:00.165Z,100941.97
2023-04-16T04:39:27.159Z,100943.66
2023-04-16T04:41:53.658Z,100948.38
2023-04-16T04:44:20.165Z,100944.25
2023-04-16T04:46:46.612Z,100951.50
2023-04-16T04:49:13.106Z,100952.00
2023-04-16T04:51:39.601Z,100955.13
2023-04-16T04:54:06.157Z,100956.47
2023-04-16T04:56:32.565Z,100958.63
2023-04-16T04:58:59.029Z,100963.34
2023-04-16T05:01:25.599Z,100962.03
2023-04-16T05:03:52.116Z,100967.59
2023-04-16T05:06:18.652Z,100972.06
2023-04-16T05:08:45.069Z,100971.94
2023-04-16T05:11:11.537Z,100979.69
2023-04-16T05:13:38.062Z,100982.81
2023-04-16T05:16:04.798Z,100977.03
2023-04-16T05:18:32.615Z,100982.94
2023-04-16T05:20:59.092Z,100988.13
2023-04-16T05:23:25.561Z,100985.47
2023-04-16T05:25:52.009Z,100994.44
2023-04-16T05:28:18.483Z,100993.44
2023-04-16T05:30:44.901Z,100992.50
2023-04-16T05:33:11.411Z,100993.59
2023-04-16T05:35:37.858Z,100998.78
2023-04-16T05:38:04.514Z,100996.47
2023-04-16T05:40:32.349Z,100986.59
2023-04-16T05:42:58.787Z,100998.53
2023-04-16T05:45:26.729Z,100997.00
2023-04-16T05:47:54.540Z,101006.53
2023-04-16T05:50:20.984Z,100998.53
2023-04-16T05:52:47.682Z,100997.09
2023-04-16T05:55:14.162Z,101002.78
2023-04-16T05:57:40.707Z,101001.69
2023-04-16T06:00:08.048Z,101010.91
2023-04-16T06:02:34.729Z,101009.41
2023-04-16T06:05:01.367Z,101009.41
2023-04-16T06:07:27.804Z,101012.94
2023-04-16T06:09:54.345Z,101024.69
2023-04-16T06:12:20.810Z,101018.50
2023-04-16T06:14:48.404Z,101022.47
2023-04-16T06:17:14.902Z,101025.28
2023-04-16T06:19:41.339Z,101031.44
2023-04-16T06:22:07.868Z,101032.91
2023-04-16T06:24:34.352Z,101027.84
2023-04-16T06:27:00.877Z,101036.06
2023-04-16T06:29:36.817Z,101036.75
2023-04-16T06:32:07.903Z,101044.75
2023-04-16T06:34:34.538Z,101038.59
2023-04-16T06:37:01.271Z,101044.16
2023-04-16T06:39:27.992Z,101039.44
2023-04-16T06:41:54.574Z,101043.06
2023-04-16T06:44:21.314Z,101043.06
2023-04-16T06:46:47.869Z,101057.34
2023-04-16T06:49:14.367Z,101051.19
2023-04-16T06:51:41.953Z,101045.97
2023-04-16T06:54:08.560Z,101048.16
2023-04-16T06:56:37.295Z,101054.94
2023-04-16T06:59:04.241Z,101050.81
2023-04-16T07:01:33.527Z,101049.38
2023-04-16T07:04:00.306Z,101052.63
2023-04-16T07:06:27.157Z,101055.16
2023-04-16T07:08:53.644Z,101055.41
2023-04-16T07:11:20.907Z,101056.97
2023-04-16T07:13:47.397Z,101060.88
2023-04-16T07:16:13.975Z,101071.03
2023-04-16T07:18:40.425Z,101073.22
2023-04-16T07:21:06.861Z,101072.25
2023-04-16T07:23:33.374Z,101076.72
2023-04-16T07:25:59.833Z,101078.88
2023-04-16T07:28:26.330Z,101077.09
2023-04-16T07:30:52.837Z,101085.09
2023-04-16T07:33:19.293Z,101093.19
2023-04-16T07:35:45.779Z,101085.56
2023-04-16T07:38:12.298Z,101092.47
2023-04-16T07:40:38.827Z,101091.38
2023-04-16T07:43:05.374Z,101093.69
2023-04-16T07:45:31.854Z,101088.81
2023-04-16T07:47:58.553Z,101097.28
2023-04-16T07:50:25.414Z,101099.00
2023-04-16T07:52:51.928Z,101102.66
2023-04-16T07:55:18.414Z,101110.41
2023-04-16T07:57:44.893Z,101108.56
2023-04-16T08:00:11.913Z,101110.97
2023-04-16T08:02:38.656Z,101107.47
2023-04-16T08:05:05.605Z,101109.66
2023-04-16T08:07:34.044Z,101119.09
2023-04-16T08:10:01.316Z,101124.78
2023-04-16T08:12:27.814Z,101119.09
2023-04-16T08:14:54.360Z,101114.59
2023-04-16T08:17:20.889Z,101114.97
2023-04-16T08:19:47.476Z,101123.72
2023-04-16T08:22:14.092Z,101126.84
2023-04-16T08:24:40.777Z,101122.13
2023-04-16T08:27:17.947Z,101130.13
2023-04-16T08:29:46.272Z,101129.75
2023-04-16T08:32:12.890Z,101130.34
2023-04-16T08:34:39.494Z,101142.34
2023-04-16T08:37:06.031Z,101136.78
2023-04-16T08:39:32.649Z,101144.66
2023-04-16T08:42:00.609Z,101149.38
2023-04-16T08:44:32.644Z,101145.25
2023-04-16T08:47:00.340Z,101156.00
2023-04-16T08:49:27.600Z,101148.75
2023-04-16T08:51:55.626Z,101152.78
2023-04-16T08:54:56.722Z,101158.19
2023-04-16T08:57:26.833Z,101162.22
2023-04-16T08:59:55.184Z,101167.16
2023-04-16T09:02:22.288Z,101167.78
2023-04-16T09:04:50.695Z,101173.19
2023-04-16T09:07:19.506Z,101169.69
2023-04-16T09:09:48.463Z,101170.91
2023-04-16T09:12:15.359Z,101170.66
2023-04-16T09:14:43.034Z,101170.66
2023-04-16T09:17:10.354Z,101170.91
2023-04-16T09:19:37.055Z,101180.59
2023-04-16T09:22:03.474Z,101188.09
2023-04-16T09:24:30.023Z,101183.25
2023-04-16T09:26:57.436Z,101183.00
2023-04-16T09:29:49.899Z,101185.56
2023-04-16T09:32:16.473Z,101184.25
2023-04-16T09:35:00.152Z,101188.25
2023-04-16T09:37:29.864Z,101191.03
2023-04-16T09:40:01.330Z,101189.81
2023-04-16T09:42:30.015Z,101200.41
2023-04-16T09:44:59.428Z,101200.75
2023-04-16T09:47:39.833Z,101199.28
2023-04-16T09:50:07.554Z,101201.72
2023-04-16T09:52:36.999Z,101196.16
2023-04-16T09:55:03.533Z,101199.28
2023-04-16T09:57:30.467Z,101204.53
2023-04-16T10:00:05.950Z,101213.38
2023-04-16T10:02:34.564Z,101205.75
2023-04-16T10:05:05.246Z,101211.06
2023-04-16T10:07:36.215Z,101215.41
2023-04-16T10:10:04.415Z,101210.56
2023-04-16T10:12:32.917Z,101213.66
2023-04-16T10:14:59.732Z,101208.97
2023-04-16T10:17:29.879Z,101217.53
2023-04-16T10:19:58.363Z,101218.91
2023-04-16T10:22:26.320Z,101225.06
2023-04-16T10:24:53.935Z,101225.91
2023-04-16T10:27:20.703Z,101228.44
2023-04-16T10:29:48.750Z,101223.28
2023-04-16T10:32:16.928Z,101229.81
2023-04-16T10:34:43.482Z,101219.91
2023-04-16T10:37:09.915Z,101229.38
2023-04-16T10:39:37.552Z,101227.03
2023-04-16T10:42:09.955Z,101234.19
2023-04-16T10:44:36.617Z,101240.13
2023-04-16T10:47:03.383Z,101232.13
2023-04-16T10:49:29.987Z,101237.81
2023-04-16T10:52:11.595Z,101238.06
2023-04-16T10:54:38.838Z,101240.72
2023-04-16T10:57:06.752Z,101242.31
2023-04-16T10:59:35.921Z,101234.94
2023-04-16T11:02:09.098Z,101234.06
2023-04-16T11:04:38.112Z,101243.63
2023-04-16T11:07:15.423Z,101243.88
2023-04-16T11:09:52.539Z,101247.28
2023-04-16T11:12:37.894Z,101250.94
2023-04-16T11:15:06.335Z,101253.09
2023-04-16T11:17:44.067Z,101249.56
2023-04-16T11:20:27.873Z,101252.25
2023-04-16T11:22:56.496Z,101249.47
2023-04-16T11:25:31.288Z,101248.72
2023-04-16T11:28:01.423Z,101262.06
2023-04-16T11:30:36.293Z,101252.69
2023-04-16T11:33:12.472Z,101259.88
2023-04-16T11:35:39.806Z,101262.22
2023-04-16T11:38:07.244Z,101260.09
2023-04-16T11:40:34.234Z,101266.63
2023-04-16T11:43:15.077Z,101266.78
2023-04-16T11:45:59.273Z,101264.06
2023-04-16T11:48:26.494Z,101265.31
2023-04-16T11:50:57.143Z,101274.00
2023-04-16T11:53:23.804Z,101268.34
2023-04-16T11:55:50.414Z,101274.97
2023-04-16T11:58:17.066Z,101269.97
2023-04-16T12:00:45.227Z,101277.16
2023-04-16T12:03:12.100Z,101279.22
2023-04-16T12:05:40.724Z,101281.41
2023-04-16T12:08:12.436Z,101283.38
2023-04-16T12:10:54.871Z,101284.69
2023-04-16T12:13:21.698Z,101279.97
2023-04-16T12:15:50.068Z,101284.69
2023-04-16T12:18:17.848Z,101288.59
2023-04-16T12:20:45.599Z,101280.59
2023-04-16T12:23:25.425Z,101285.78
2023-04-16T12:25:52.351Z,101286.50
2023-04-16T12:28:29.918Z,101291.59
2023-04-16T12:30:56.567Z,101291.41
2023-04-16T12:33:23.204Z,101289.34
2023-04-16T12:35:50.902Z,101307.88
2023-04-16T12:38:17.450Z,101297.47
2023-04-16T12:40:44.252Z,101294.44
2023-04-16T12:43:11.078Z,101296.84
2023-04-16T12:45:38.779Z,101300.38
2023-04-16T12:48:05.733Z,101296.50
2023-04-16T12:50:32.711Z,101299.28
2023-04-16T12:52:59.589Z,101296.72
2023-04-16T12:55:26.052Z,101300.38
2023-04-16T12:57:55.186Z,101298.53
2023-04-16T13:00:22.559Z,101298.91
2023-04-16T13:02:49.259Z,101302.16
2023-04-16T13:05:17.178Z,101303.75
2023-04-16T13:07:43.652Z,101304.59
2023-04-16T13:10:10.467Z,101303.50
2023-04-16T13:12:37.065Z,101310.28
2023-04-16T13:15:03.832Z,101310.28
2023-04-16T13:17:30.526Z,101313.94
2023-04-16T13:19:57.011Z,101312.59
2023-04-16T13:22:24.275Z,101315.25
2023-04-16T13:24:50.870Z,101320.47
2023-04-16T13:27:17.922Z,101320.81
2023-04-16T13:29:44.825Z,101315.84
2023-04-16T13:32:13.701Z,101319.84
2023-04-16T13:34:40.289Z,101322.03
2023-04-16T13:37:06.834Z,101323.97
2023-04-16T13:39:33.664Z,101324.94
2023-04-16T13:42:00.342Z,101322.41
2023-04-16T13:44:26.828Z,101323.25
2023-04-16T13:46:53.577Z,101321.56
2023-04-16T13:49:20.270Z,101320.13
2023-04-16T13:51:46.733Z,101319.50
2023-04-16T13:54:13.356Z,101320.63
2023-04-16T13:56:40.860Z,101318.91
2023-04-16T13:59:07.974Z,101320.59
2023-04-16T14:01:34.559Z,101312.97
2023-04-16T14:04:06.119Z,101315.03
2023-04-16T14:06:33.962Z,101327.28
2023-04-16T14:09:00.463Z,101322.19
2023-04-16T14:11:26.890Z,101322.41
2023-04-16T14:13:53.432Z,101324.38
2023-04-16T14:16:20.083Z,101327.88
2023-04-16T14:18:47.541Z,101328.47
2023-04-16T14:21:13.989Z,101319.50
2023-04-16T14:23:41.174Z,101323.13
2023-04-16T14:26:08.115Z,101319.97
2023-04-16T14:28:35.643Z,101327.75
2023-04-16T14:31:02.277Z,101329.91
2023-04-16T14:33:28.841Z,101326.03
2023-04-16T14:35:55.469Z,101326.03
2023-04-16T14:38:21.995Z,101329.66
2023-04-16T14:40:48.724Z,101327.34
2023-04-16T14:43:15.373Z,101330.50
2023-04-16T14:45:42.272Z,101337.19
2023-04-16T14:48:08.781Z,101336.72
2023-04-16T14:50:39.104Z,101341.16
2023-04-16T14:53:05.917Z,101341.09
2023-04-16T14:55:32.601Z,101337.47
2023-04-16T14:57:59.786Z,101336.13
2023-04-16T15:00:27.488Z,101332.72
2023-04-16T15:02:55.097Z,101336.97
2023-04-16T15:05:22.117Z,101333.44
2023-04-16T15:07:48.543Z,101342.06
2023-04-16T15:10:15.127Z,101345.56
2023-04-16T15:12:41.565Z,101348.63
2023-04-16T15:15:09.046Z,101353.47
2023-04-16T15:17:35.933Z,101353.47
2023-04-16T15:20:06.005Z,101358.31
2023-04-16T15:22:32.476Z,101361.09
2023-04-16T15:24:58.894Z,101357.81
2023-04-16T15:27:25.619Z,101369.84
2023-04-16T15:29:53.876Z,101369.69
2023-04-16T15:32:20.815Z,101367.25
2023-04-16T15:34:47.394Z,101364.59
2023-04-16T15:37:14.023Z,101361.56
2023-04-16T15:39:40.761Z,101366.03
2023-04-16T15:42:08.380Z,101365.06
2023-04-16T15:44:35.043Z,101369.06
2023-04-16T15:47:01.545Z,101363.97
2023-04-16T15:49:28.068Z,101371.38
2023-04-16T15:51:55.685Z,101372.72
2023-04-16T15:54:22.429Z,101375.41
2023-04-16T15:56:48.959Z,101368.84
2023-04-16T15:59:15.668Z,101379.16
2023-04-16T16:01:42.196Z,101378.06
2023-04-16T16:04:08.937Z,101386.28
2023-04-16T16:06:37.894Z,101381.44
2023-04-16T16:09:04.921Z,101386.91
2023-04-16T16:11:32.609Z,101387.53
2023-04-16T16:14:01.307Z,101384.34
2023-04-16T16:16:28.620Z,101386.53
2023-04-16T16:18:55.411Z,101382.63
2023-04-16T16:21:22.023Z,101389.19
2023-04-16T16:23:48.608Z,101390.75
2023-04-16T16:26:15.111Z,101393.41
2023-04-16T16:28:43.753Z,101396.78
2023-04-16T16:31:12.164Z,101395.09
2023-04-16T16:33:40.301Z,101394.59
2023-04-16T16:36:10.763Z,101400.16
2023-04-16T16:38:37.898Z,101401.97
2023-04-16T16:41:04.351Z,101405.88
2023-04-16T16:43:31.001Z,101408.53
2023-04-16T16:45:57.465Z,101404.41
2023-04-16T16:48:23.938Z,101408.75
2023-04-16T16:50:50.541Z,101414.09
2023-04-16T16:53:17.114Z,101410.31
2023-04-16T16:55:43.547Z,101413.88
2023-04-16T16:58:10.157Z,101411.56
2023-04-16T17:00:37.674Z,101418.75
2023-04-16T17:03:04.301Z,101418.97
2023-04-16T17:05:31.059Z,101425.72
2023-04-16T17:07:57.506Z,101425.09
2023-04-16T17:10:25.096Z,101423.84
2023-04-16T17:12:51.822Z,101427.00
2023-04-16T17:15:21.239Z,101430.00
2023-04-16T17:17:48.455Z,101427.69
2023-04-16T17:20:15.599Z,101439.28
2023-04-16T17:22:42.426Z,101438.13
2023-04-16T17:25:09.216Z,101432.06
2023-04-16T17:27:36.017Z,101443.25
2023-04-16T17:30:05.285Z,101435.16
2023-04-16T17:32:32.573Z,101444.63
2023-04-16T17:35:00.970Z,101444.97
2023-04-16T17:37:27.623Z,101442.72
2023-04-16T17:39:54.227Z,101454.22
2023-04-16T17:42:20.762Z,101453.50
2023-04-16T17:44:47.535Z,101455.63
2023-04-16T17:47:14.029Z,101458.41
2023-04-16T17:49:40.659Z,101460.09
2023-04-16T17:52:07.160Z,101461.72
2023-04-16T17:54:33.635Z,101469.69
2023-04-16T17:57:00.154Z,101465.88
2023-04-16T17:59:27.311Z,101468.75
2023-04-16T18:01:54.780Z,101475.66
2023-04-16T18:04:21.527Z,101471.31
2023-04-16T18:06:48.335Z,101479.06
2023-04-16T18:09:15.472Z,101478.09
2023-04-16T18:11:42.129Z,101488.75
2023-04-16T18:14:10.011Z,101487.06
2023-04-16T18:16:36.793Z,101488.75
2023-04-16T18:19:03.344Z,101484.63
2023-04-16T18:21:30.399Z,101493.78
2023-04-16T18:23:57.478Z,101497.50
2023-04-16T18:26:25.261Z,101497.63
2023-04-16T18:28:51.980Z,101507.72
2023-04-16T18:31:21.055Z,101507.84
2023-04-16T18:33:56.706Z,101507.94
2023-04-16T18:36:24.419Z,101512.09
2023-04-16T18:39:00.795Z,101513.69
2023-04-16T18:41:28.036Z,101519.75
2023-04-16T18:43:54.728Z,101520.59
2023-04-16T18:46:21.229Z,101528.69
2023-04-16T18:48:48.153Z,101525.28
2023-04-16T18:51:16.359Z,101523.38
2023-04-16T18:53:45.243Z,101522.75
2023-04-16T18:56:11.770Z,101534.44
2023-04-16T18:58:38.267Z,101530.09
2023-04-16T19:01:07.724Z,101529.88
2023-04-16T19:03:34.446Z,101532.41
2023-04-16T19:06:01.132Z,101533.47
2023-04-16T19:08:27.798Z,101535.91
2023-04-16T19:10:54.369Z,101535.19
2023-04-16T19:13:20.939Z,101536.38
2023-04-16T19:15:47.439Z,101545.91
2023-04-16T19:18:14.005Z,101541.91
2023-04-16T19:20:40.514Z,101547.22
2023-04-16T19:23:09.221Z,101541.00
2023-04-16T19:25:36.670Z,101547.72
2023-04-16T19:28:03.807Z,101540.81
2023-04-16T19:30:30.879Z,101547.94
2023-04-16T19:32:57.615Z,101549.13
2023-04-16T19:35:24.282Z,101545.69
2023-04-16T19:37:51.064Z,101542.81
2023-04-16T19:40:17.666Z,101538.47
2023-04-16T19:42:45.376Z,101543.78
2023-04-16T19:45:11.977Z,101544.97
2023-04-16T19:47:38.689Z,101549.13
2023-04-16T19:50:05.829Z,101547.94
2023-04-16T19:52:37.317Z,101547.19
2023-04-16T19:55:04.410Z,101552.72
2023-04-16T19:57:30.934Z,101550.38
2023-04-16T19:59:57.401Z,101549.22
2023-04-16T20:02:23.993Z,101552.91
2023-04-16T20:04:50.776Z,101553.56
2023-04-16T20:07:17.511Z,101549.41
2023-04-16T20:09:44.083Z,101558.03
2023-04-16T20:12:10.936Z,101559.53
2023-04-16T20:14:37.366Z,101567.63
2023-04-16T20:17:04.045Z,101557.06
2023-04-16T20:19:33.650Z,101558.47
2023-04-16T20:22:00.363Z,101555.03
2023-04-16T20:24:26.812Z,101561.25
2023-04-16T20:26:53.292Z,101565.69
2023-04-16T20:29:19.879Z,101561.44
2023-04-16T20:31:46.636Z,101567.63
2023-04-16T20:34:13.097Z,101572.72
2023-04-16T20:36:39.554Z,101569.53
2023-04-16T20:39:08.138Z,101566.97
2023-04-16T20:41:34.996Z,101569.84
2023-04-16T20:44:05.447Z,101566.84
2023-04-16T20:46:34.155Z,101569.63
2023-04-16T20:49:03.507Z,101573.34
2023-04-16T20:51:29.954Z,101577.63
2023-04-16T20:53:56.718Z,101583.97
2023-04-16T20:56:23.157Z,101579.81
2023-04-16T20:58:49.712Z,101584.19
2023-04-16T21:01:18.274Z,101581.53
2023-04-16T21:03:45.187Z,101580.69
2023-04-16T21:06:14.416Z,101587.34
2023-04-16T21:08:41.125Z,101587.25
2023-04-16T21:11:07.581Z,101590.88
2023-04-16T21:13:34.331Z,101585.66
2023-04-16T21:16:00.929Z,101590.97
2023-04-16T21:18:27.599Z,101588.31
2023-04-16T21:20:54.030Z,101587.31
2023-04-16T21:23:20.642Z,101589.03
2023-04-16T21:25:47.113Z,101590.72
2023-04-16T21:28:13.598Z,101585.16
2023-04-16T21:30:40.446Z,101582.38
2023-04-16T21:33:07.052Z,101593.38
2023-04-16T21:35:33.594Z,101592.63
2023-04-16T21:38:00.346Z,101581.75
2023-04-16T21:40:26.855Z,101586.78
2023-04-16T21:42:53.624Z,101580.28
2023-04-16T21:45:20.235Z,101586.84
2023-04-16T21:47:46.657Z,101581.31
2023-04-16T21:50:13.332Z,101586.22
2023-04-16T21:52:40.339Z,101584.31
2023-04-16T21:55:16.663Z,101594.28
2023-04-16T21:57:43.235Z,101584.06
2023-04-16T22:00:13.881Z,101582.38
2023-04-16T22:02:42.292Z,101592.22
2023-04-16T22:05:09.404Z,101595.94
2023-04-16T22:07:36.735Z,101588.19
2023-04-16T22:10:04.472Z,101583.16
2023-04-16T22:12:31.059Z,101590.28
2023-04-16T22:15:02.345Z,101598.25
2023-04-16T22:17:30.102Z,101597.19
2023-04-16T22:20:00.368Z,101601.00
2023-04-16T22:22:26.773Z,101594.84
2023-04-16T22:24:53.439Z,101596.44
2023-04-16T22:27:19.931Z,101599.00
2023-04-16T22:29:46.551Z,101601.28
2023-04-16T22:32:13.096Z,101605.66
2023-04-16T22:34:39.633Z,101606.59
2023-04-16T22:37:07.973Z,101607.25
2023-04-16T22:39:34.696Z,101608.69
2023-04-16T22:42:02.803Z,101604.97
2023-04-16T22:44:29.350Z,101617.59
2023-04-16T22:46:56.046Z,101609.63
2023-04-16T22:49:22.511Z,101613.16
2023-04-16T22:51:49.137Z,101609.34
2023-04-16T22:54:15.772Z,101606.97
2023-04-16T22:56:42.292Z,101610.75
2023-04-16T22:59:08.964Z,101603.00
2023-04-16T23:01:35.787Z,101599.59
2023-04-16T23:04:02.538Z,101599.41
2023-04-16T23:06:29.042Z,101604.97
2023-04-16T23:08:55.620Z,101610.69
2023-04-16T23:11:22.209Z,101603.38
2023-04-16T23:13:48.760Z,101606.03
2023-04-16T23:16:15.458Z,101604.03
2023-04-16T23:18:42.050Z,101604.09
2023-04-16T23:21:08.520Z,101606.22
2023-04-16T23:23:34.971Z,101609.72
2023-04-16T23:26:02.771Z,101614.94
2023-04-16T23:28:29.211Z,101614.28
2023-04-16T23:30:55.928Z,101611.06
2023-04-16T23:33:22.606Z,101619.78
2023-04-16T23:35:49.074Z,101605.25
2023-04-16T23:38:15.648Z,101603.75
2023-04-16T23:40:42.212Z,101608.09
2023-04-16T23:43:10.098Z,101611.91
2023-04-16T23:45:36.847Z,101608.97
2023-04-16T23:48:03.524Z,101603.88
2023-04-16T23:50:30.269Z,101611.81
2023-04-16T23:52:56.839Z,101617.03
2023-04-16T23:55:23.492Z,101603.00
2023-04-16T23:57:50.013Z,101611.63
